createdAt,value
2019-01-20T00:03:44.270Z,77.82
2019-01-20T00:06:12.908Z,77.96
2019-01-20T00:08:41.208Z,78.16
2019-01-20T00:11:29.167Z,78.25
2019-01-20T00:13:57.811Z,78.40
2019-01-20T00:16:26.127Z,78.52
2019-01-20T00:19:13.799Z,78.64
2019-01-20T00:21:42.118Z,78.74
2019-01-20T00:24:10.414Z,78.82
2019-01-20T00:26:58.111Z,78.86
2019-01-20T00:29:26.419Z,78.86
2019-01-20T00:34:42.050Z,79.10
2019-01-20T00:37:10.355Z,79.10
2019-01-20T00:39:38.941Z,79.19
2019-01-20T00:45:02.564Z,79.51
2019-01-20T00:47:28.381Z,79.31
2019-01-20T00:52:49.200Z,79.21
2019-01-20T00:55:57.571Z,79.34
2019-01-20T01:01:13.201Z,79.37
2019-01-20T01:04:01.135Z,79.34
2019-01-20T01:06:29.438Z,79.34
2019-01-20T01:08:57.733Z,79.27
2019-01-20T01:11:45.409Z,79.20
2019-01-20T01:14:13.710Z,79.01
2019-01-20T01:17:01.367Z,78.84
2019-01-20T01:19:48.810Z,78.76
2019-01-20T01:22:36.227Z,78.53
2019-01-20T01:25:44.813Z,78.60
2019-01-20T01:28:13.114Z,78.62
2019-01-20T01:31:00.772Z,78.65
2019-01-20T01:33:29.064Z,78.63
2019-01-20T01:35:57.379Z,78.58
2019-01-20T01:38:45.038Z,78.75
2019-01-20T01:41:13.351Z,78.86
2019-01-20T01:43:41.641Z,78.67
2019-01-20T01:46:10.211Z,78.58
2019-01-20T01:48:38.536Z,78.35
2019-01-20T01:54:13.504Z,78.47
2019-01-20T01:57:01.172Z,78.38
2019-01-20T01:59:29.477Z,78.44
2019-01-20T02:01:58.043Z,78.66
2019-01-20T02:04:45.982Z,78.67
2019-01-20T02:07:33.659Z,78.52
2019-01-20T02:10:21.089Z,78.51
2019-01-20T02:13:29.444Z,78.75
2019-01-20T02:15:57.733Z,78.74
2019-01-20T02:18:26.061Z,79.02
2019-01-20T02:20:54.351Z,79.29
2019-01-20T02:23:22.657Z,79.41
2019-01-20T02:25:50.958Z,79.54
2019-01-20T02:28:19.280Z,79.61
2019-01-20T02:31:06.704Z,79.67
2019-01-20T02:33:35.377Z,79.73
2019-01-20T02:36:24.531Z,79.78
2019-01-20T02:38:52.808Z,79.84
2019-01-20T02:41:21.111Z,80.01
2019-01-20T02:43:49.663Z,80.08
2019-01-20T02:46:18.296Z,80.22
2019-01-20T02:48:46.602Z,80.20
2019-01-20T02:51:15.256Z,80.09
2019-01-20T02:53:43.554Z,80.22
2019-01-20T02:56:11.865Z,80.35
2019-01-20T02:58:40.170Z,80.28
2019-01-20T03:01:08.775Z,80.28
2019-01-20T03:03:37.078Z,80.40
2019-01-20T03:06:24.869Z,80.24
2019-01-20T03:08:53.163Z,80.24
2019-01-20T03:11:40.592Z,80.29
2019-01-20T03:16:56.235Z,80.03
2019-01-20T03:22:13.837Z,80.12
2019-01-20T03:24:42.417Z,80.45
2019-01-20T03:27:30.165Z,80.59
2019-01-20T03:29:58.456Z,80.67
2019-01-20T03:32:26.752Z,80.57
2019-01-20T03:35:14.443Z,80.50
2019-01-20T03:37:42.763Z,80.45
2019-01-20T03:40:51.370Z,80.55
2019-01-20T03:43:40.075Z,80.34
2019-01-20T03:46:08.376Z,80.27
2019-01-20T03:51:29.813Z,80.78
2019-01-20T03:53:58.378Z,80.86
2019-01-20T03:56:26.681Z,80.80
2019-01-20T03:58:55.236Z,80.55
2019-01-20T04:01:43.003Z,80.51
2019-01-20T04:04:11.666Z,80.67
2019-01-20T04:09:14.215Z,80.83
2019-01-20T04:11:42.787Z,80.89
2019-01-20T04:14:11.413Z,80.88
2019-01-20T04:16:39.736Z,80.96
2019-01-20T04:19:08.024Z,81.03
2019-01-20T04:21:36.338Z,80.95
2019-01-20T04:24:44.691Z,80.97
2019-01-20T04:27:12.973Z,81.08
2019-01-20T04:29:41.280Z,81.23
2019-01-20T04:32:09.906Z,81.23
2019-01-20T04:34:38.229Z,81.15
2019-01-20T04:39:53.953Z,81.28
2019-01-20T04:42:28.900Z,81.47
2019-01-20T04:44:52.271Z,81.55
2019-01-20T04:47:20.861Z,81.38
2019-01-20T04:49:49.152Z,81.22
2019-01-20T04:52:17.478Z,81.31
2019-01-20T04:54:46.102Z,81.46
2019-01-20T04:59:53.703Z,81.63
2019-01-20T05:02:22.020Z,81.53
2019-01-20T05:04:50.328Z,81.27
2019-01-20T05:07:37.989Z,81.29
2019-01-20T05:10:46.359Z,81.29
2019-01-20T05:13:14.651Z,81.22
2019-01-20T05:15:42.967Z,81.19
2019-01-20T05:18:11.280Z,81.18
2019-01-20T05:20:39.583Z,81.22
2019-01-20T05:23:07.911Z,81.39
2019-01-20T05:28:42.887Z,81.50
2019-01-20T05:31:11.182Z,81.46
2019-01-20T05:36:13.806Z,81.62
2019-01-20T05:38:42.408Z,81.58
2019-01-20T05:41:29.823Z,81.46
2019-01-20T05:43:58.157Z,81.43
2019-01-20T05:46:26.464Z,81.42
2019-01-20T05:48:54.757Z,81.58
2019-01-20T05:53:57.386Z,81.49
2019-01-20T05:58:59.460Z,81.40
2019-01-20T06:01:27.765Z,81.43
2019-01-20T06:04:15.197Z,81.39
2019-01-20T06:07:02.879Z,81.35
2019-01-20T06:12:18.519Z,81.29
2019-01-20T06:14:47.148Z,81.00
2019-01-20T06:17:15.441Z,81.01
2019-01-20T06:20:23.085Z,81.20
2019-01-20T06:25:38.709Z,81.33
2019-01-20T06:28:07.003Z,81.27
2019-01-20T06:30:54.865Z,81.30
2019-01-20T06:33:23.423Z,81.43
2019-01-20T06:35:51.745Z,81.45
2019-01-20T06:38:39.406Z,81.48
2019-01-20T06:41:08.021Z,81.56
2019-01-20T06:43:36.312Z,81.62
2019-01-20T06:46:23.832Z,81.57
2019-01-20T06:51:39.465Z,81.64
2019-01-20T06:54:07.770Z,81.53
2019-01-20T06:56:36.077Z,81.48
2019-01-20T06:59:04.446Z,81.62
2019-01-20T07:01:52.144Z,81.65
2019-01-20T07:04:20.464Z,81.51
2019-01-20T07:06:49.041Z,81.48
2019-01-20T07:09:17.636Z,81.53
2019-01-20T07:12:05.073Z,81.40
2019-01-20T07:14:33.362Z,81.26
2019-01-20T07:17:01.708Z,81.19
2019-01-20T07:19:29.966Z,81.20
2019-01-20T07:21:58.271Z,81.18
2019-01-20T07:24:26.584Z,81.16
2019-01-20T07:26:54.883Z,81.13
2019-01-20T07:29:24.700Z,81.10
2019-01-20T07:32:12.821Z,81.12
2019-01-20T07:34:41.459Z,81.30
2019-01-20T07:37:10.145Z,81.35
2019-01-20T07:39:38.450Z,81.40
2019-01-20T07:44:41.621Z,81.46
2019-01-20T07:47:10.614Z,81.48
2019-01-20T07:49:38.920Z,81.56
2019-01-20T07:52:07.238Z,81.56
2019-01-20T07:57:22.894Z,81.58
2019-01-20T08:00:10.639Z,81.60
2019-01-20T08:02:58.083Z,81.46
2019-01-20T08:08:13.800Z,81.46
2019-01-20T08:10:42.177Z,81.71
2019-01-20T08:13:30.115Z,81.75
2019-01-20T08:15:58.418Z,81.71
2019-01-20T08:18:26.716Z,81.88
2019-01-20T08:21:14.410Z,82.02
2019-01-20T08:24:02.367Z,81.91
2019-01-20T08:26:30.955Z,81.91
2019-01-20T08:28:59.260Z,81.74
2019-01-20T08:34:01.472Z,82.09
2019-01-20T08:36:29.787Z,82.11
2019-01-20T08:39:17.438Z,82.01
2019-01-20T08:41:45.770Z,82.05
2019-01-20T08:44:14.079Z,82.21
2019-01-20T08:47:22.476Z,82.40
2019-01-20T08:50:10.585Z,82.49
2019-01-20T08:52:38.955Z,82.57
2019-01-20T08:55:47.257Z,82.55
2019-01-20T08:58:55.706Z,82.50
2019-01-20T09:01:24.039Z,82.49
2019-01-20T09:03:52.367Z,82.35
2019-01-20T09:06:20.689Z,82.37
2019-01-20T09:08:48.999Z,82.36
2019-01-20T09:13:51.346Z,82.20
2019-01-20T09:16:19.657Z,82.22
2019-01-20T09:18:47.964Z,82.16
2019-01-20T09:21:16.280Z,82.14
2019-01-20T09:26:32.176Z,82.11
2019-01-20T09:29:00.488Z,82.21
2019-01-20T09:31:28.792Z,82.11
2019-01-20T09:33:57.416Z,82.24
2019-01-20T09:36:25.738Z,82.29
2019-01-20T09:39:13.864Z,82.23
2019-01-20T09:42:01.276Z,82.06
2019-01-20T09:47:22.800Z,82.19
2019-01-20T09:49:51.121Z,81.94
2019-01-20T09:52:38.780Z,81.88
2019-01-20T09:55:47.130Z,81.74
2019-01-20T09:58:34.791Z,81.90
2019-01-20T10:01:03.099Z,81.63
2019-01-20T10:03:50.531Z,81.55
2019-01-20T10:06:37.969Z,81.40
2019-01-20T10:09:46.576Z,81.41
2019-01-20T10:12:34.278Z,81.37
2019-01-20T10:15:02.924Z,80.99
2019-01-20T10:17:31.611Z,80.96
2019-01-20T10:20:00.019Z,80.71
2019-01-20T10:22:28.378Z,80.50
2019-01-20T10:25:15.961Z,80.36
2019-01-20T10:27:44.278Z,80.46
2019-01-20T10:30:33.261Z,80.44
2019-01-20T10:33:41.590Z,80.25
2019-01-20T10:36:09.898Z,79.93
2019-01-20T10:38:38.223Z,79.82
2019-01-20T10:41:25.996Z,80.01
2019-01-20T10:43:54.621Z,80.00
2019-01-20T10:48:56.800Z,79.70
2019-01-20T10:51:44.740Z,79.48
2019-01-20T10:54:13.330Z,79.27
2019-01-20T10:56:42.024Z,79.18
2019-01-20T10:59:10.314Z,78.84
2019-01-20T11:01:38.606Z,78.59
2019-01-20T11:04:46.974Z,78.71
2019-01-20T11:07:16.311Z,78.50
2019-01-20T11:09:45.396Z,77.69
2019-01-20T11:15:01.038Z,77.67
2019-01-20T11:17:29.656Z,77.27
2019-01-20T11:20:17.357Z,76.95
2019-01-20T11:25:46.813Z,76.62
2019-01-20T11:28:15.402Z,76.70
2019-01-20T11:30:43.713Z,76.91
2019-01-20T11:33:12.269Z,76.71
2019-01-20T11:35:40.569Z,76.10
2019-01-20T11:38:28.320Z,75.48
2019-01-20T11:40:56.955Z,75.17
2019-01-20T11:43:25.333Z,75.44
2019-01-20T11:46:13.015Z,74.89
2019-01-20T11:49:00.454Z,74.95
2019-01-20T11:54:35.429Z,74.33
2019-01-20T11:57:23.184Z,74.32
2019-01-20T11:59:51.759Z,73.87
2019-01-20T12:06:15.441Z,72.80
2019-01-20T12:09:02.848Z,72.42
2019-01-20T12:11:31.176Z,71.69
2019-01-20T12:13:59.495Z,71.08
2019-01-20T12:16:27.791Z,71.23
2019-01-20T12:19:15.486Z,71.06
2019-01-20T12:22:02.917Z,70.88
2019-01-20T12:24:31.218Z,70.46
2019-01-20T12:26:59.516Z,70.13
2019-01-20T12:29:27.833Z,69.93
2019-01-20T12:34:43.479Z,69.62
2019-01-20T12:37:31.076Z,69.53
2019-01-20T12:39:59.383Z,69.06
2019-01-20T12:42:27.677Z,69.12
2019-01-20T12:47:30.140Z,68.66
2019-01-20T12:50:17.599Z,68.62
2019-01-20T12:52:45.879Z,68.00
2019-01-20T12:55:54.217Z,67.49
2019-01-20T12:59:02.535Z,67.41
2019-01-20T13:01:30.876Z,67.05
2019-01-20T13:04:18.785Z,66.84
2019-01-20T13:06:47.088Z,66.69
2019-01-20T13:09:15.695Z,66.33
2019-01-20T13:12:03.615Z,66.36
2019-01-20T13:17:19.236Z,65.97
2019-01-20T13:19:47.523Z,66.06
2019-01-20T13:22:15.816Z,66.00
2019-01-20T13:24:44.125Z,65.98
2019-01-20T13:30:02.030Z,66.12
2019-01-20T13:35:57.687Z,66.15
2019-01-20T13:38:45.596Z,65.94
2019-01-20T13:41:54.194Z,65.86
2019-01-20T13:47:09.813Z,66.01
2019-01-20T13:54:59.558Z,65.87
2019-01-20T13:57:27.865Z,65.89
2019-01-20T14:00:35.111Z,65.98
2019-01-20T14:03:22.535Z,65.87
2019-01-20T14:05:52.209Z,65.87
2019-01-20T14:08:20.863Z,65.94
2019-01-20T14:10:49.397Z,66.06
2019-01-20T14:13:37.331Z,66.24
2019-01-20T14:16:24.992Z,66.27
2019-01-20T14:19:13.504Z,66.26
2019-01-20T14:21:41.787Z,66.10
2019-01-20T14:27:17.049Z,66.16
2019-01-20T14:30:04.480Z,65.98
2019-01-20T14:32:32.773Z,65.93
2019-01-20T14:35:20.459Z,65.85
2019-01-20T14:40:55.475Z,65.42
2019-01-20T14:43:43.139Z,65.38
2019-01-20T14:46:30.820Z,65.26
2019-01-20T14:48:59.189Z,65.20
2019-01-20T14:54:20.649Z,64.95
2019-01-20T14:57:08.327Z,64.65
2019-01-20T14:59:36.634Z,64.49
2019-01-20T15:02:24.393Z,64.47
2019-01-20T15:05:12.021Z,63.61
2019-01-20T15:07:40.652Z,63.61
2019-01-20T15:10:48.989Z,63.81
2019-01-20T15:15:51.737Z,63.04
2019-01-20T15:18:20.056Z,63.15
2019-01-20T15:20:48.353Z,62.97
2019-01-20T15:23:16.647Z,62.84
2019-01-20T15:28:38.832Z,62.72
2019-01-20T15:36:51.567Z,62.77
2019-01-20T15:42:07.182Z,62.98
2019-01-20T15:44:54.852Z,63.15
2019-01-20T15:47:23.165Z,63.29
2019-01-20T15:50:10.845Z,63.76
2019-01-20T15:52:39.144Z,63.81
2019-01-20T15:55:26.771Z,64.30
2019-01-20T15:57:55.099Z,64.30
2019-01-20T16:01:03.395Z,64.30
2019-01-20T16:03:51.377Z,64.55
2019-01-20T16:06:19.682Z,64.65
2019-01-20T16:09:07.367Z,64.86
2019-01-20T16:11:55.085Z,64.99
2019-01-20T16:14:23.390Z,65.40
2019-01-20T16:19:44.500Z,65.74
2019-01-20T16:22:12.817Z,65.94
2019-01-20T16:24:41.117Z,65.88
2019-01-20T16:32:37.557Z,66.42
2019-01-20T16:35:46.167Z,66.52
2019-01-20T16:38:33.893Z,66.75
2019-01-20T16:41:02.476Z,66.65
2019-01-20T16:43:50.163Z,66.74
2019-01-20T16:46:55.822Z,66.82
2019-01-20T16:49:24.146Z,66.85
2019-01-20T16:54:40.048Z,66.98
2019-01-20T16:57:27.990Z,67.03
2019-01-20T16:59:56.297Z,67.17
2019-01-20T17:02:24.611Z,67.29
2019-01-20T17:04:52.917Z,67.61
2019-01-20T17:09:55.202Z,68.41
2019-01-20T17:12:42.903Z,68.84
2019-01-20T17:15:42.512Z,69.31
2019-01-20T17:24:17.968Z,70.50
2019-01-20T17:27:05.411Z,70.87
2019-01-20T17:29:33.765Z,71.25
2019-01-20T17:32:03.591Z,71.61
2019-01-20T17:34:32.123Z,71.79
2019-01-20T17:37:00.823Z,72.13
2019-01-20T17:39:48.240Z,72.37
2019-01-20T17:42:16.560Z,72.50
2019-01-20T17:44:44.867Z,72.83
2019-01-20T17:47:13.175Z,73.10
2019-01-20T17:49:41.782Z,73.27
2019-01-20T17:52:10.078Z,73.52
2019-01-20T17:54:38.402Z,73.67
2019-01-20T17:57:06.709Z,73.89
2019-01-20T18:02:28.666Z,74.06
2019-01-20T18:04:56.986Z,74.11
2019-01-20T18:07:25.300Z,74.22
2019-01-20T18:12:40.943Z,74.51
2019-01-20T18:18:15.925Z,74.71
2019-01-20T18:20:44.521Z,74.72
2019-01-20T18:23:12.848Z,74.90
2019-01-20T18:26:21.182Z,75.05
2019-01-20T18:28:49.508Z,75.24
2019-01-20T18:31:17.879Z,75.38
2019-01-20T18:36:19.761Z,75.59
2019-01-20T18:38:48.066Z,75.68
2019-01-20T18:41:16.388Z,75.82
2019-01-20T18:43:44.711Z,75.79
2019-01-20T18:46:32.412Z,75.82
2019-01-20T18:49:00.736Z,76.03
2019-01-20T18:54:16.708Z,76.42
2019-01-20T18:57:04.384Z,76.54
2019-01-20T18:59:52.044Z,76.60
2019-01-20T19:02:39.691Z,76.75
2019-01-20T19:08:20.600Z,76.76
2019-01-20T19:13:22.407Z,76.98
2019-01-20T19:16:09.854Z,77.06
2019-01-20T19:21:25.510Z,77.35
2019-01-20T19:26:41.159Z,77.36
2019-01-20T19:29:28.803Z,77.36
2019-01-20T19:32:16.585Z,77.34
2019-01-20T19:34:44.878Z,77.46
2019-01-20T19:37:13.190Z,77.44
2019-01-20T19:39:41.505Z,77.57
2019-01-20T19:42:09.808Z,77.71
2019-01-20T19:47:12.466Z,78.00
2019-01-20T19:52:14.723Z,78.15
2019-01-20T19:54:43.062Z,78.21
2019-01-20T19:57:11.357Z,78.28
2019-01-20T19:59:59.009Z,78.31
2019-01-20T20:02:27.305Z,78.45
2019-01-20T20:04:55.867Z,78.57
2019-01-20T20:07:43.563Z,78.69
2019-01-20T20:10:51.936Z,78.74
2019-01-20T20:13:39.368Z,78.79
2019-01-20T20:16:07.701Z,78.82
2019-01-20T20:18:36.006Z,78.87
2019-01-20T20:21:04.324Z,78.96
2019-01-20T20:23:32.634Z,79.05
2019-01-20T20:26:20.071Z,79.16
2019-01-20T20:31:35.718Z,79.39
2019-01-20T20:37:12.108Z,79.44
2019-01-20T20:42:47.092Z,79.53
2019-01-20T20:45:34.999Z,79.55
2019-01-20T20:50:58.099Z,79.22
2019-01-20T20:53:45.887Z,79.26
2019-01-20T20:56:14.236Z,79.41
2019-01-20T20:59:04.306Z,79.65
2019-01-20T21:01:32.616Z,79.77
2019-01-20T21:04:01.209Z,79.74
2019-01-20T21:06:29.792Z,79.67
2019-01-20T21:09:17.440Z,79.80
2019-01-20T21:14:20.057Z,79.82
2019-01-20T21:17:08.123Z,79.70
2019-01-20T21:19:36.426Z,79.49
2019-01-20T21:22:05.011Z,79.63
2019-01-20T21:24:33.317Z,79.85
2019-01-20T21:30:29.303Z,79.93
2019-01-20T21:32:57.900Z,79.84
2019-01-20T21:35:45.565Z,80.00
2019-01-20T21:38:13.878Z,80.07
2019-01-20T21:41:01.306Z,80.09
2019-01-20T21:43:29.620Z,80.20
2019-01-20T21:45:57.928Z,80.26
2019-01-20T21:51:19.190Z,80.20
2019-01-20T21:53:47.515Z,80.27
2019-01-20T21:56:15.799Z,80.22
2019-01-20T22:01:31.447Z,80.02
2019-01-20T22:03:59.755Z,80.08
2019-01-20T22:06:28.069Z,80.27
2019-01-20T22:09:15.739Z,80.46
2019-01-20T22:11:44.359Z,80.56
2019-01-20T22:14:12.954Z,80.39
2019-01-20T22:16:41.241Z,80.39
2019-01-20T22:19:09.566Z,80.50
2019-01-20T22:21:37.860Z,80.53
2019-01-20T22:24:06.179Z,80.54
2019-01-20T22:26:34.491Z,80.42
2019-01-20T22:29:03.120Z,80.30
2019-01-20T22:31:31.695Z,80.27
2019-01-20T22:34:19.396Z,80.34
2019-01-20T22:36:47.699Z,80.43
2019-01-20T22:39:16.008Z,80.42
2019-01-20T22:41:44.347Z,80.52
2019-01-20T22:44:31.744Z,80.53
2019-01-20T22:47:00.562Z,80.34
2019-01-20T22:49:30.087Z,80.29
2019-01-20T22:51:58.399Z,80.45
2019-01-20T22:54:26.706Z,80.58
2019-01-20T22:56:55.323Z,80.59
2019-01-20T22:59:23.618Z,80.56
2019-01-20T23:02:11.263Z,80.61
2019-01-20T23:08:05.374Z,80.64
2019-01-20T23:10:53.043Z,80.54
2019-01-20T23:15:54.880Z,80.59
2019-01-20T23:18:42.559Z,80.67
2019-01-20T23:21:10.870Z,80.68
2019-01-20T23:23:39.204Z,80.51
2019-01-20T23:26:47.555Z,80.46
2019-01-20T23:29:17.100Z,80.52
2019-01-20T23:31:45.911Z,80.55
2019-01-20T23:34:14.256Z,80.66
2019-01-20T23:37:01.679Z,80.71
2019-01-20T23:39:30.315Z,80.75
2019-01-20T23:41:58.619Z,80.79
2019-01-20T23:44:27.180Z,80.69
2019-01-20T23:46:55.503Z,80.62
2019-01-20T23:49:23.803Z,80.55
2019-01-20T23:51:52.155Z,80.61
2019-01-20T23:54:40.131Z,80.60
2019-01-20T23:59:42.162Z,80.69
